sensor_id;sensor_type;location;lat;lon;timestamp;temperature;humidity
73939;DHT22;62291;47.554;8.504;2022-08-11T00:00:03;16.30;87.60
73939;DHT22;62291;47.554;8.504;2022-08-11T00:02:37;16.20;88.50
73939;DHT22;62291;47.554;8.504;2022-08-11T00:05:16;16.30;88.40
73939;DHT22;62291;47.554;8.504;2022-08-11T00:07:47;16.20;89.70
73939;DHT22;62291;47.554;8.504;2022-08-11T00:10:25;16.10;89.90
73939;DHT22;62291;47.554;8.504;2022-08-11T00:12:57;16.10;90.40
73939;DHT22;62291;47.554;8.504;2022-08-11T00:15:24;16.20;90.10
73939;DHT22;62291;47.554;8.504;2022-08-11T00:18:00;16.00;90.10
73939;DHT22;62291;47.554;8.504;2022-08-11T00:20:31;16.00;90.80
73939;DHT22;62291;47.554;8.504;2022-08-11T00:23:04;16.00;91.10
73939;DHT22;62291;47.554;8.504;2022-08-11T00:25:40;15.90;90.70
73939;DHT22;62291;47.554;8.504;2022-08-11T00:28:23;15.90;90.70
73939;DHT22;62291;47.554;8.504;2022-08-11T00:30:52;16.00;90.50
73939;DHT22;62291;47.554;8.504;2022-08-11T00:33:21;16.20;89.20
73939;DHT22;62291;47.554;8.504;2022-08-11T00:35:49;16.60;87.60
73939;DHT22;62291;47.554;8.504;2022-08-11T00:38:16;16.70;85.50
73939;DHT22;62291;47.554;8.504;2022-08-11T00:54:38;16.70;85.40
73939;DHT22;62291;47.554;8.504;2022-08-11T01:00:18;17.30;82.70
73939;DHT22;62291;47.554;8.504;2022-08-11T01:05:55;17.70;81.00
73939;DHT22;62291;47.554;8.504;2022-08-11T01:08:54;17.70;80.90
73939;DHT22;62291;47.554;8.504;2022-08-11T01:21:11;17.70;80.50
73939;DHT22;62291;47.554;8.504;2022-08-11T01:26:54;17.80;80.00
73939;DHT22;62291;47.554;8.504;2022-08-11T01:35:20;17.50;83.10
73939;DHT22;62291;47.554;8.504;2022-08-11T01:44:03;16.90;86.00
73939;DHT22;62291;47.554;8.504;2022-08-11T01:53:15;16.40;90.00
73939;DHT22;62291;47.554;8.504;2022-08-11T01:55:46;16.20;90.00
73939;DHT22;62291;47.554;8.504;2022-08-11T02:12:40;15.60;92.50
73939;DHT22;62291;47.554;8.504;2022-08-11T02:15:32;15.60;92.20
73939;DHT22;62291;47.554;8.504;2022-08-11T02:18:19;15.40;93.30
73939;DHT22;62291;47.554;8.504;2022-08-11T02:20:58;15.20;93.40
73939;DHT22;62291;47.554;8.504;2022-08-11T02:23:56;15.00;94.80
73939;DHT22;62291;47.554;8.504;2022-08-11T02:26:40;14.90;94.90
73939;DHT22;62291;47.554;8.504;2022-08-11T02:32:18;14.70;96.00
73939;DHT22;62291;47.554;8.504;2022-08-11T02:35:07;14.70;96.70
73939;DHT22;62291;47.554;8.504;2022-08-11T02:37:51;14.70;96.70
73939;DHT22;62291;47.554;8.504;2022-08-11T02:40:22;14.60;98.00
73939;DHT22;62291;47.554;8.504;2022-08-11T02:48:19;14.10;99.90
73939;DHT22;62291;47.554;8.504;2022-08-11T02:51:38;14.10;99.90
73939;DHT22;62291;47.554;8.504;2022-08-11T02:56:45;13.90;99.90
73939;DHT22;62291;47.554;8.504;2022-08-11T02:59:29;13.90;99.90
73939;DHT22;62291;47.554;8.504;2022-08-11T03:18:17;13.90;99.90
73939;DHT22;62291;47.554;8.504;2022-08-11T03:21:12;13.90;99.90
73939;DHT22;62291;47.554;8.504;2022-08-11T03:24:08;13.90;99.90
73939;DHT22;62291;47.554;8.504;2022-08-11T03:27:06;13.80;99.90
73939;DHT22;62291;47.554;8.504;2022-08-11T03:35:41;14.10;99.90
73939;DHT22;62291;47.554;8.504;2022-08-11T03:38:11;14.20;99.90
73939;DHT22;62291;47.554;8.504;2022-08-11T03:46:58;14.50;99.90
73939;DHT22;62291;47.554;8.504;2022-08-11T04:17:48;14.70;99.90
73939;DHT22;62291;47.554;8.504;2022-08-11T04:29:49;14.40;99.90
73939;DHT22;62291;47.554;8.504;2022-08-11T04:44:35;14.30;99.90
73939;DHT22;62291;47.554;8.504;2022-08-11T04:56:52;17.00;98.20
73939;DHT22;62291;47.554;8.504;2022-08-11T05:02:57;18.70;96.50
73939;DHT22;62291;47.554;8.504;2022-08-11T05:05:59;19.50;95.10
73939;DHT22;62291;47.554;8.504;2022-08-11T05:14:31;21.60;90.90
73939;DHT22;62291;47.554;8.504;2022-08-11T05:17:24;22.50;83.50
73939;DHT22;62291;47.554;8.504;2022-08-11T05:20:11;23.10;81.40
73939;DHT22;62291;47.554;8.504;2022-08-11T05:23:01;23.60;79.70
73939;DHT22;62291;47.554;8.504;2022-08-11T05:25:47;24.20;76.10
73939;DHT22;62291;47.554;8.504;2022-08-11T05:28:36;24.20;69.00
73939;DHT22;62291;47.554;8.504;2022-08-11T05:31:31;24.40;68.60
73939;DHT22;62291;47.554;8.504;2022-08-11T05:34:23;25.00;67.90
73939;DHT22;62291;47.554;8.504;2022-08-11T05:37:23;25.60;64.40
73939;DHT22;62291;47.554;8.504;2022-08-11T05:39:54;25.70;63.10
73939;DHT22;62291;47.554;8.504;2022-08-11T05:42:49;25.60;62.30
73939;DHT22;62291;47.554;8.504;2022-08-11T05:45:35;26.10;60.60
73939;DHT22;62291;47.554;8.504;2022-08-11T05:48:20;26.20;59.60
73939;DHT22;62291;47.554;8.504;2022-08-11T05:51:05;25.90;59.70
73939;DHT22;62291;47.554;8.504;2022-08-11T05:53:52;26.50;59.70
73939;DHT22;62291;47.554;8.504;2022-08-11T05:56:54;27.00;57.40
73939;DHT22;62291;47.554;8.504;2022-08-11T05:59:22;27.00;59.40
73939;DHT22;62291;47.554;8.504;2022-08-11T06:01:48;27.40;58.00
73939;DHT22;62291;47.554;8.504;2022-08-11T06:04:20;27.50;58.20
73939;DHT22;62291;47.554;8.504;2022-08-11T06:06:52;27.40;56.60
73939;DHT22;62291;47.554;8.504;2022-08-11T06:09:48;26.60;57.50
73939;DHT22;62291;47.554;8.504;2022-08-11T06:12:23;26.70;57.40
73939;DHT22;62291;47.554;8.504;2022-08-11T06:14:54;26.50;58.70
73939;DHT22;62291;47.554;8.504;2022-08-11T06:17:25;26.80;57.80
73939;DHT22;62291;47.554;8.504;2022-08-11T06:19:58;27.10;57.10
73939;DHT22;62291;47.554;8.504;2022-08-11T06:22:24;27.00;56.80
73939;DHT22;62291;47.554;8.504;2022-08-11T06:24:56;27.20;55.50
73939;DHT22;62291;47.554;8.504;2022-08-11T06:27:24;27.20;56.00
73939;DHT22;62291;47.554;8.504;2022-08-11T06:29:52;27.00;57.60
73939;DHT22;62291;47.554;8.504;2022-08-11T06:32:19;27.30;56.00
73939;DHT22;62291;47.554;8.504;2022-08-11T06:35:22;27.20;55.30
73939;DHT22;62291;47.554;8.504;2022-08-11T06:38:04;27.70;56.00
73939;DHT22;62291;47.554;8.504;2022-08-11T06:43:20;28.00;54.10
73939;DHT22;62291;47.554;8.504;2022-08-11T06:46:04;28.20;54.30
73939;DHT22;62291;47.554;8.504;2022-08-11T06:48:31;28.20;54.90
73939;DHT22;62291;47.554;8.504;2022-08-11T06:51:07;28.00;54.50
73939;DHT22;62291;47.554;8.504;2022-08-11T06:53:52;27.80;54.60
73939;DHT22;62291;47.554;8.504;2022-08-11T06:56:36;27.60;54.40
73939;DHT22;62291;47.554;8.504;2022-08-11T06:59:22;27.60;54.80
73939;DHT22;62291;47.554;8.504;2022-08-11T07:02:14;27.80;54.30
73939;DHT22;62291;47.554;8.504;2022-08-11T07:10:46;29.50;52.90
73939;DHT22;62291;47.554;8.504;2022-08-11T07:13:37;29.20;52.30
73939;DHT22;62291;47.554;8.504;2022-08-11T07:16:27;28.70;52.80
73939;DHT22;62291;47.554;8.504;2022-08-11T07:19:01;28.70;53.10
73939;DHT22;62291;47.554;8.504;2022-08-11T07:21:47;28.50;53.20
73939;DHT22;62291;47.554;8.504;2022-08-11T07:24:38;28.70;53.90
73939;DHT22;62291;47.554;8.504;2022-08-11T07:27:23;28.90;54.00
73939;DHT22;62291;47.554;8.504;2022-08-11T07:30:10;29.10;52.90
73939;DHT22;62291;47.554;8.504;2022-08-11T07:32:53;29.50;51.60
73939;DHT22;62291;47.554;8.504;2022-08-11T07:35:30;29.40;51.80
73939;DHT22;62291;47.554;8.504;2022-08-11T07:38:05;28.90;51.60
73939;DHT22;62291;47.554;8.504;2022-08-11T07:40:32;28.90;52.80
73939;DHT22;62291;47.554;8.504;2022-08-11T07:42:59;29.00;53.60
73939;DHT22;62291;47.554;8.504;2022-08-11T07:45:26;28.80;52.80
73939;DHT22;62291;47.554;8.504;2022-08-11T07:48:11;29.10;51.90
73939;DHT22;62291;47.554;8.504;2022-08-11T07:50:56;29.10;52.10
73939;DHT22;62291;47.554;8.504;2022-08-11T07:53:41;28.70;53.70
73939;DHT22;62291;47.554;8.504;2022-08-11T07:56:08;28.70;53.10
73939;DHT22;62291;47.554;8.504;2022-08-11T07:58:35;29.00;53.40
73939;DHT22;62291;47.554;8.504;2022-08-11T08:01:22;28.80;51.70
73939;DHT22;62291;47.554;8.504;2022-08-11T08:04:08;28.70;53.60
73939;DHT22;62291;47.554;8.504;2022-08-11T08:06:53;29.00;52.60
73939;DHT22;62291;47.554;8.504;2022-08-11T08:09:38;29.20;52.10
73939;DHT22;62291;47.554;8.504;2022-08-11T08:12:24;29.50;51.70
73939;DHT22;62291;47.554;8.504;2022-08-11T08:15:10;29.20;50.80
73939;DHT22;62291;47.554;8.504;2022-08-11T08:18:00;29.30;51.40
73939;DHT22;62291;47.554;8.504;2022-08-11T08:20:33;29.20;51.30
73939;DHT22;62291;47.554;8.504;2022-08-11T08:23:01;28.70;51.90
73939;DHT22;62291;47.554;8.504;2022-08-11T08:25:29;28.40;52.70
73939;DHT22;62291;47.554;8.504;2022-08-11T08:27:57;28.10;53.40
73939;DHT22;62291;47.554;8.504;2022-08-11T08:30:27;28.40;53.50
73939;DHT22;62291;47.554;8.504;2022-08-11T08:35:43;28.90;52.80
73939;DHT22;62291;47.554;8.504;2022-08-11T08:38:10;29.60;50.90
73939;DHT22;62291;47.554;8.504;2022-08-11T08:40:38;29.60;51.30
73939;DHT22;62291;47.554;8.504;2022-08-11T08:43:07;29.20;52.60
73939;DHT22;62291;47.554;8.504;2022-08-11T08:45:35;29.00;52.40
73939;DHT22;62291;47.554;8.504;2022-08-11T08:48:10;29.20;52.10
73939;DHT22;62291;47.554;8.504;2022-08-11T08:51:01;29.40;52.80
73939;DHT22;62291;47.554;8.504;2022-08-11T08:53:50;29.20;52.10
73939;DHT22;62291;47.554;8.504;2022-08-11T08:56:17;28.50;53.00
73939;DHT22;62291;47.554;8.504;2022-08-11T08:58:45;28.90;53.40
73939;DHT22;62291;47.554;8.504;2022-08-11T09:01:13;29.70;53.10
73939;DHT22;62291;47.554;8.504;2022-08-11T09:03:39;29.90;52.00
73939;DHT22;62291;47.554;8.504;2022-08-11T09:06:06;29.00;51.70
73939;DHT22;62291;47.554;8.504;2022-08-11T09:08:32;28.80;52.20
73939;DHT22;62291;47.554;8.504;2022-08-11T09:11:00;29.00;52.20
73939;DHT22;62291;47.554;8.504;2022-08-11T09:13:45;28.90;53.00
73939;DHT22;62291;47.554;8.504;2022-08-11T09:16:11;29.20;52.90
73939;DHT22;62291;47.554;8.504;2022-08-11T09:18:39;29.40;53.50
73939;DHT22;62291;47.554;8.504;2022-08-11T09:21:13;29.40;51.70
73939;DHT22;62291;47.554;8.504;2022-08-11T09:23:40;29.00;53.50
73939;DHT22;62291;47.554;8.504;2022-08-11T09:26:26;29.40;52.90
73939;DHT22;62291;47.554;8.504;2022-08-11T09:29:10;29.20;52.30
73939;DHT22;62291;47.554;8.504;2022-08-11T09:31:36;29.20;53.30
73939;DHT22;62291;47.554;8.504;2022-08-11T09:34:02;29.20;52.00
73939;DHT22;62291;47.554;8.504;2022-08-11T09:36:28;29.40;53.00
73939;DHT22;62291;47.554;8.504;2022-08-11T09:39:13;29.50;53.20
73939;DHT22;62291;47.554;8.504;2022-08-11T09:42:01;29.80;52.30
73939;DHT22;62291;47.554;8.504;2022-08-11T09:44:28;29.90;52.10
73939;DHT22;62291;47.554;8.504;2022-08-11T09:47:27;30.00;51.90
73939;DHT22;62291;47.554;8.504;2022-08-11T09:49:56;29.60;52.60
73939;DHT22;62291;47.554;8.504;2022-08-11T09:52:24;29.70;52.00
73939;DHT22;62291;47.554;8.504;2022-08-11T09:54:51;30.00;52.20
73939;DHT22;62291;47.554;8.504;2022-08-11T09:57:21;30.40;52.50
73939;DHT22;62291;47.554;8.504;2022-08-11T10:00:07;30.40;52.00
73939;DHT22;62291;47.554;8.504;2022-08-11T10:02:41;30.20;52.10
73939;DHT22;62291;47.554;8.504;2022-08-11T10:05:07;30.00;52.10
73939;DHT22;62291;47.554;8.504;2022-08-11T10:07:53;29.60;53.60
73939;DHT22;62291;47.554;8.504;2022-08-11T10:10:21;29.50;53.50
73939;DHT22;62291;47.554;8.504;2022-08-11T10:12:55;29.50;54.30
73939;DHT22;62291;47.554;8.504;2022-08-11T10:15:25;29.70;53.90
73939;DHT22;62291;47.554;8.504;2022-08-11T10:18:16;30.10;53.40
73939;DHT22;62291;47.554;8.504;2022-08-11T10:23:41;29.70;52.50
73939;DHT22;62291;47.554;8.504;2022-08-11T10:26:28;29.50;52.60
73939;DHT22;62291;47.554;8.504;2022-08-11T10:29:13;29.70;55.00
73939;DHT22;62291;47.554;8.504;2022-08-11T10:31:59;29.90;53.50
73939;DHT22;62291;47.554;8.504;2022-08-11T10:34:46;30.00;54.50
73939;DHT22;62291;47.554;8.504;2022-08-11T10:37:13;30.30;53.80
73939;DHT22;62291;47.554;8.504;2022-08-11T10:39:40;30.30;53.30
73939;DHT22;62291;47.554;8.504;2022-08-11T10:42:06;30.30;53.30
73939;DHT22;62291;47.554;8.504;2022-08-11T10:44:54;30.50;53.50
73939;DHT22;62291;47.554;8.504;2022-08-11T10:47:21;30.20;53.00
73939;DHT22;62291;47.554;8.504;2022-08-11T10:50:06;29.70;53.30
73939;DHT22;62291;47.554;8.504;2022-08-11T10:52:52;30.00;54.10
73939;DHT22;62291;47.554;8.504;2022-08-11T10:55:37;30.10;53.80
73939;DHT22;62291;47.554;8.504;2022-08-11T10:58:23;30.30;54.40
73939;DHT22;62291;47.554;8.504;2022-08-11T11:01:08;30.00;52.70
73939;DHT22;62291;47.554;8.504;2022-08-11T11:03:34;30.00;53.40
73939;DHT22;62291;47.554;8.504;2022-08-11T11:09:23;30.00;54.30
73939;DHT22;62291;47.554;8.504;2022-08-11T11:11:56;29.80;53.90
73939;DHT22;62291;47.554;8.504;2022-08-11T11:14:42;29.60;54.00
73939;DHT22;62291;47.554;8.504;2022-08-11T11:17:49;29.30;53.80
73939;DHT22;62291;47.554;8.504;2022-08-11T11:20:27;29.10;56.60
73939;DHT22;62291;47.554;8.504;2022-08-11T11:23:02;29.10;54.30
73939;DHT22;62291;47.554;8.504;2022-08-11T11:31:48;29.40;54.60
73939;DHT22;62291;47.554;8.504;2022-08-11T11:37:18;29.20;54.30
73939;DHT22;62291;47.554;8.504;2022-08-11T11:39:44;29.00;55.00
73939;DHT22;62291;47.554;8.504;2022-08-11T11:42:10;29.00;55.20
73939;DHT22;62291;47.554;8.504;2022-08-11T11:44:43;29.00;54.40
73939;DHT22;62291;47.554;8.504;2022-08-11T11:47:11;28.90;55.80
73939;DHT22;62291;47.554;8.504;2022-08-11T11:49:37;28.90;55.30
73939;DHT22;62291;47.554;8.504;2022-08-11T11:52:07;28.70;55.70
73939;DHT22;62291;47.554;8.504;2022-08-11T11:54:34;28.90;55.30
73939;DHT22;62291;47.554;8.504;2022-08-11T11:57:01;28.90;54.80
73939;DHT22;62291;47.554;8.504;2022-08-11T11:59:48;28.70;56.40
73939;DHT22;62291;47.554;8.504;2022-08-11T12:02:34;28.70;56.30
73939;DHT22;62291;47.554;8.504;2022-08-11T12:05:00;29.00;56.70
73939;DHT22;62291;47.554;8.504;2022-08-11T12:07:27;29.20;55.40
73939;DHT22;62291;47.554;8.504;2022-08-11T12:10:13;29.40;58.30
73939;DHT22;62291;47.554;8.504;2022-08-11T12:12:39;29.60;55.40
73939;DHT22;62291;47.554;8.504;2022-08-11T12:15:23;29.40;55.00
73939;DHT22;62291;47.554;8.504;2022-08-11T12:17:49;29.20;54.60
73939;DHT22;62291;47.554;8.504;2022-08-11T12:20:18;29.00;54.40
73939;DHT22;62291;47.554;8.504;2022-08-11T12:22:46;28.80;56.30
73939;DHT22;62291;47.554;8.504;2022-08-11T12:25:31;29.00;55.70
73939;DHT22;62291;47.554;8.504;2022-08-11T12:28:17;29.30;56.10
73939;DHT22;62291;47.554;8.504;2022-08-11T12:30:43;29.40;56.40
73939;DHT22;62291;47.554;8.504;2022-08-11T12:33:12;29.40;55.20
73939;DHT22;62291;47.554;8.504;2022-08-11T12:35:39;29.30;55.70
73939;DHT22;62291;47.554;8.504;2022-08-11T12:38:08;29.20;55.60
73939;DHT22;62291;47.554;8.504;2022-08-11T12:40:34;29.20;56.40
73939;DHT22;62291;47.554;8.504;2022-08-11T12:43:21;29.30;55.20
73939;DHT22;62291;47.554;8.504;2022-08-11T12:46:16;29.30;54.60
73939;DHT22;62291;47.554;8.504;2022-08-11T12:48:45;29.40;56.10
73939;DHT22;62291;47.554;8.504;2022-08-11T12:51:40;29.60;57.50
73939;DHT22;62291;47.554;8.504;2022-08-11T12:54:34;29.60;54.60
73939;DHT22;62291;47.554;8.504;2022-08-11T12:57:13;29.40;56.30
73939;DHT22;62291;47.554;8.504;2022-08-11T12:59:59;29.20;55.60
73939;DHT22;62291;47.554;8.504;2022-08-11T13:02:48;29.10;56.00
73939;DHT22;62291;47.554;8.504;2022-08-11T13:05:32;29.00;55.70
73939;DHT22;62291;47.554;8.504;2022-08-11T13:08:02;29.10;56.20
73939;DHT22;62291;47.554;8.504;2022-08-11T13:10:31;28.90;55.40
73939;DHT22;62291;47.554;8.504;2022-08-11T13:13:23;28.80;57.00
73939;DHT22;62291;47.554;8.504;2022-08-11T13:15:49;28.90;56.70
73939;DHT22;62291;47.554;8.504;2022-08-11T13:18:18;28.80;55.70
73939;DHT22;62291;47.554;8.504;2022-08-11T13:20:48;28.90;55.40
73939;DHT22;62291;47.554;8.504;2022-08-11T13:23:16;28.90;55.80
73939;DHT22;62291;47.554;8.504;2022-08-11T13:25:42;28.90;56.00
73939;DHT22;62291;47.554;8.504;2022-08-11T13:28:09;29.00;56.30
73939;DHT22;62291;47.554;8.504;2022-08-11T13:30:37;29.00;54.40
73939;DHT22;62291;47.554;8.504;2022-08-11T13:33:22;29.00;55.60
73939;DHT22;62291;47.554;8.504;2022-08-11T13:35:51;28.90;55.30
73939;DHT22;62291;47.554;8.504;2022-08-11T13:38:20;28.70;54.90
73939;DHT22;62291;47.554;8.504;2022-08-11T13:40:48;28.60;54.90
73939;DHT22;62291;47.554;8.504;2022-08-11T13:43:15;28.80;56.60
73939;DHT22;62291;47.554;8.504;2022-08-11T13:45:43;28.90;56.10
73939;DHT22;62291;47.554;8.504;2022-08-11T13:48:13;28.80;55.60
73939;DHT22;62291;47.554;8.504;2022-08-11T13:50:40;28.80;55.30
73939;DHT22;62291;47.554;8.504;2022-08-11T13:53:26;28.90;56.10
73939;DHT22;62291;47.554;8.504;2022-08-11T13:55:54;28.70;55.90
73939;DHT22;62291;47.554;8.504;2022-08-11T13:58:22;28.60;55.70
73939;DHT22;62291;47.554;8.504;2022-08-11T14:00:49;28.40;55.80
73939;DHT22;62291;47.554;8.504;2022-08-11T14:03:24;28.30;57.40
73939;DHT22;62291;47.554;8.504;2022-08-11T14:05:52;28.20;56.70
73939;DHT22;62291;47.554;8.504;2022-08-11T14:08:28;28.20;56.60
73939;DHT22;62291;47.554;8.504;2022-08-11T14:11:03;28.20;57.50
73939;DHT22;62291;47.554;8.504;2022-08-11T14:13:49;28.30;57.00
73939;DHT22;62291;47.554;8.504;2022-08-11T14:16:25;28.20;56.70
73939;DHT22;62291;47.554;8.504;2022-08-11T14:18:53;28.10;56.60
73939;DHT22;62291;47.554;8.504;2022-08-11T14:21:23;28.10;57.00
73939;DHT22;62291;47.554;8.504;2022-08-11T14:24:09;28.00;56.60
73939;DHT22;62291;47.554;8.504;2022-08-11T14:26:36;27.90;56.50
73939;DHT22;62291;47.554;8.504;2022-08-11T14:29:12;27.80;57.10
73939;DHT22;62291;47.554;8.504;2022-08-11T14:34:11;27.80;57.30
73939;DHT22;62291;47.554;8.504;2022-08-11T14:36:42;27.80;57.20
73939;DHT22;62291;47.554;8.504;2022-08-11T14:39:16;27.80;59.00
73939;DHT22;62291;47.554;8.504;2022-08-11T14:41:47;27.80;58.10
73939;DHT22;62291;47.554;8.504;2022-08-11T14:44:34;27.80;58.40
73939;DHT22;62291;47.554;8.504;2022-08-11T14:47:19;27.80;58.20
73939;DHT22;62291;47.554;8.504;2022-08-11T14:49:46;27.80;59.00
73939;DHT22;62291;47.554;8.504;2022-08-11T14:52:15;27.90;56.50
73939;DHT22;62291;47.554;8.504;2022-08-11T14:54:47;27.80;57.00
73939;DHT22;62291;47.554;8.504;2022-08-11T14:57:35;27.80;57.30
73939;DHT22;62291;47.554;8.504;2022-08-11T15:00:04;27.70;56.30
73939;DHT22;62291;47.554;8.504;2022-08-11T15:02:36;27.70;56.80
73939;DHT22;62291;47.554;8.504;2022-08-11T15:05:21;27.70;57.10
73939;DHT22;62291;47.554;8.504;2022-08-11T15:07:47;27.70;56.70
73939;DHT22;62291;47.554;8.504;2022-08-11T15:10:16;27.60;57.40
73939;DHT22;62291;47.554;8.504;2022-08-11T15:12:43;27.60;56.30
73939;DHT22;62291;47.554;8.504;2022-08-11T15:15:10;27.50;56.90
73939;DHT22;62291;47.554;8.504;2022-08-11T15:18:02;27.60;56.30
73939;DHT22;62291;47.554;8.504;2022-08-11T15:20:30;27.60;56.00
73939;DHT22;62291;47.554;8.504;2022-08-11T15:23:14;27.60;57.30
73939;DHT22;62291;47.554;8.504;2022-08-11T15:26:01;27.60;56.90
73939;DHT22;62291;47.554;8.504;2022-08-11T15:28:30;27.60;56.20
73939;DHT22;62291;47.554;8.504;2022-08-11T15:31:15;27.60;57.70
73939;DHT22;62291;47.554;8.504;2022-08-11T15:34:03;27.50;56.10
73939;DHT22;62291;47.554;8.504;2022-08-11T15:36:48;27.50;57.40
73939;DHT22;62291;47.554;8.504;2022-08-11T15:39:44;27.50;56.60
73939;DHT22;62291;47.554;8.504;2022-08-11T15:42:32;27.50;57.20
73939;DHT22;62291;47.554;8.504;2022-08-11T15:45:21;27.50;58.30
73939;DHT22;62291;47.554;8.504;2022-08-11T15:48:10;27.50;57.70
73939;DHT22;62291;47.554;8.504;2022-08-11T15:50:45;27.50;57.80
73939;DHT22;62291;47.554;8.504;2022-08-11T15:55:58;27.50;57.10
73939;DHT22;62291;47.554;8.504;2022-08-11T15:58:29;27.50;57.00
73939;DHT22;62291;47.554;8.504;2022-08-11T16:01:18;27.50;58.00
73939;DHT22;62291;47.554;8.504;2022-08-11T16:04:06;27.50;57.10
73939;DHT22;62291;47.554;8.504;2022-08-11T16:06:56;27.50;57.50
73939;DHT22;62291;47.554;8.504;2022-08-11T16:09:35;27.40;57.40
73939;DHT22;62291;47.554;8.504;2022-08-11T16:12:05;27.50;58.00
73939;DHT22;62291;47.554;8.504;2022-08-11T16:14:36;27.40;57.20
73939;DHT22;62291;47.554;8.504;2022-08-11T16:17:24;27.40;56.80
73939;DHT22;62291;47.554;8.504;2022-08-11T16:19:53;27.30;57.30
73939;DHT22;62291;47.554;8.504;2022-08-11T16:22:32;27.30;56.60
73939;DHT22;62291;47.554;8.504;2022-08-11T16:25:09;27.20;56.70
73939;DHT22;62291;47.554;8.504;2022-08-11T16:27:39;27.20;56.70
73939;DHT22;62291;47.554;8.504;2022-08-11T16:30:06;27.20;57.60
73939;DHT22;62291;47.554;8.504;2022-08-11T16:32:34;27.10;57.40
73939;DHT22;62291;47.554;8.504;2022-08-11T16:35:08;27.20;57.70
73939;DHT22;62291;47.554;8.504;2022-08-11T16:37:54;27.10;58.00
73939;DHT22;62291;47.554;8.504;2022-08-11T16:40:41;27.10;56.90
73939;DHT22;62291;47.554;8.504;2022-08-11T16:43:11;27.10;57.30
73939;DHT22;62291;47.554;8.504;2022-08-11T16:45:57;27.10;57.80
73939;DHT22;62291;47.554;8.504;2022-08-11T16:48:45;27.10;57.60
73939;DHT22;62291;47.554;8.504;2022-08-11T16:51:12;27.00;58.20
73939;DHT22;62291;47.554;8.504;2022-08-11T16:53:39;27.00;58.20
73939;DHT22;62291;47.554;8.504;2022-08-11T16:56:07;27.00;58.00
73939;DHT22;62291;47.554;8.504;2022-08-11T16:58:36;27.00;57.90
73939;DHT22;62291;47.554;8.504;2022-08-11T17:01:22;26.90;57.50
73939;DHT22;62291;47.554;8.504;2022-08-11T17:03:58;26.90;57.50
73939;DHT22;62291;47.554;8.504;2022-08-11T17:06:46;26.90;57.70
73939;DHT22;62291;47.554;8.504;2022-08-11T17:09:33;26.80;58.10
73939;DHT22;62291;47.554;8.504;2022-08-11T17:12:20;26.80;57.70
73939;DHT22;62291;47.554;8.504;2022-08-11T17:15:10;26.80;57.90
73939;DHT22;62291;47.554;8.504;2022-08-11T17:17:58;26.70;57.40
73939;DHT22;62291;47.554;8.504;2022-08-11T17:20:26;26.70;58.30
73939;DHT22;62291;47.554;8.504;2022-08-11T17:22:53;26.70;57.60
73939;DHT22;62291;47.554;8.504;2022-08-11T17:25:38;26.60;58.20
73939;DHT22;62291;47.554;8.504;2022-08-11T17:28:05;26.60;57.50
73939;DHT22;62291;47.554;8.504;2022-08-11T17:30:32;26.60;56.90
73939;DHT22;62291;47.554;8.504;2022-08-11T17:33:17;26.50;56.80
73939;DHT22;62291;47.554;8.504;2022-08-11T17:36:02;26.50;57.60
73939;DHT22;62291;47.554;8.504;2022-08-11T17:38:29;26.40;57.70
73939;DHT22;62291;47.554;8.504;2022-08-11T17:40:59;26.40;57.70
73939;DHT22;62291;47.554;8.504;2022-08-11T17:43:45;26.40;58.30
73939;DHT22;62291;47.554;8.504;2022-08-11T17:46:32;26.30;58.40
73939;DHT22;62291;47.554;8.504;2022-08-11T17:49:17;26.20;59.00
73939;DHT22;62291;47.554;8.504;2022-08-11T17:51:46;26.20;58.20
73939;DHT22;62291;47.554;8.504;2022-08-11T17:54:33;26.20;58.20
73939;DHT22;62291;47.554;8.504;2022-08-11T17:57:18;26.10;58.90
73939;DHT22;62291;47.554;8.504;2022-08-11T18:00:04;26.10;59.00
73939;DHT22;62291;47.554;8.504;2022-08-11T18:02:39;26.00;58.90
73939;DHT22;62291;47.554;8.504;2022-08-11T18:05:28;25.90;59.00
73939;DHT22;62291;47.554;8.504;2022-08-11T18:07:57;25.90;59.40
73939;DHT22;62291;47.554;8.504;2022-08-11T18:10:43;25.90;58.90
73939;DHT22;62291;47.554;8.504;2022-08-11T18:13:32;25.80;60.00
73939;DHT22;62291;47.554;8.504;2022-08-11T18:16:18;25.70;59.90
73939;DHT22;62291;47.554;8.504;2022-08-11T18:19:04;25.60;60.00
73939;DHT22;62291;47.554;8.504;2022-08-11T18:21:50;25.50;61.10
73939;DHT22;62291;47.554;8.504;2022-08-11T18:24:44;25.50;60.90
73939;DHT22;62291;47.554;8.504;2022-08-11T18:27:32;25.30;61.10
73939;DHT22;62291;47.554;8.504;2022-08-11T18:30:17;25.20;62.00
73939;DHT22;62291;47.554;8.504;2022-08-11T18:33:02;25.00;61.30
73939;DHT22;62291;47.554;8.504;2022-08-11T18:35:51;24.90;61.20
73939;DHT22;62291;47.554;8.504;2022-08-11T18:38:38;24.90;61.00
73939;DHT22;62291;47.554;8.504;2022-08-11T18:41:25;24.80;61.30
73939;DHT22;62291;47.554;8.504;2022-08-11T18:44:12;24.80;61.30
73939;DHT22;62291;47.554;8.504;2022-08-11T18:46:58;24.80;61.90
73939;DHT22;62291;47.554;8.504;2022-08-11T18:49:45;24.70;61.30
73939;DHT22;62291;47.554;8.504;2022-08-11T18:52:32;24.60;61.70
73939;DHT22;62291;47.554;8.504;2022-08-11T18:55:18;24.60;61.60
73939;DHT22;62291;47.554;8.504;2022-08-11T18:58:06;24.50;61.80
73939;DHT22;62291;47.554;8.504;2022-08-11T19:00:56;24.50;62.50
73939;DHT22;62291;47.554;8.504;2022-08-11T19:03:43;24.40;62.30
73939;DHT22;62291;47.554;8.504;2022-08-11T19:06:30;24.30;62.80
73939;DHT22;62291;47.554;8.504;2022-08-11T19:09:16;24.30;62.90
73939;DHT22;62291;47.554;8.504;2022-08-11T19:12:03;24.30;62.60
73939;DHT22;62291;47.554;8.504;2022-08-11T19:14:50;24.20;62.60
73939;DHT22;62291;47.554;8.504;2022-08-11T19:17:39;24.20;62.80
73939;DHT22;62291;47.554;8.504;2022-08-11T19:20:26;24.10;63.70
73939;DHT22;62291;47.554;8.504;2022-08-11T19:23:12;24.10;64.10
73939;DHT22;62291;47.554;8.504;2022-08-11T19:25:59;24.00;63.00
73939;DHT22;62291;47.554;8.504;2022-08-11T19:28:45;24.00;62.80
73939;DHT22;62291;47.554;8.504;2022-08-11T19:31:31;23.90;63.30
73939;DHT22;62291;47.554;8.504;2022-08-11T19:34:20;23.90;63.00
73939;DHT22;62291;47.554;8.504;2022-08-11T19:37:06;23.90;63.40
73939;DHT22;62291;47.554;8.504;2022-08-11T19:39:52;23.90;63.50
73939;DHT22;62291;47.554;8.504;2022-08-11T19:42:38;23.90;63.60
73939;DHT22;62291;47.554;8.504;2022-08-11T19:45:23;23.80;63.90
73939;DHT22;62291;47.554;8.504;2022-08-11T19:48:08;23.80;63.70
73939;DHT22;62291;47.554;8.504;2022-08-11T19:50:53;23.70;64.40
73939;DHT22;62291;47.554;8.504;2022-08-11T19:53:38;23.60;65.30
73939;DHT22;62291;47.554;8.504;2022-08-11T19:56:23;23.50;65.10
73939;DHT22;62291;47.554;8.504;2022-08-11T19:59:09;23.40;67.60
73939;DHT22;62291;47.554;8.504;2022-08-11T20:01:53;23.30;66.30
73939;DHT22;62291;47.554;8.504;2022-08-11T20:04:37;23.20;66.50